createdAt,value
2018-12-09T00:01:08.685Z,8.00
2018-12-09T00:03:36.200Z,8.00
2018-12-09T00:06:03.718Z,8.00
2018-12-09T00:08:31.500Z,8.00
2018-12-09T00:10:58.994Z,8.10
2018-12-09T00:13:26.478Z,8.10
2018-12-09T00:15:53.962Z,8.20
2018-12-09T00:18:21.462Z,8.30
2018-12-09T00:20:48.951Z,8.20
2018-12-09T00:23:16.470Z,8.20
2018-12-09T00:25:43.963Z,8.20
2018-12-09T00:28:11.463Z,8.20
2018-12-09T00:30:38.963Z,8.20
2018-12-09T00:33:06.450Z,8.10
2018-12-09T00:35:34.313Z,8.10
2018-12-09T00:38:01.810Z,8.10
2018-12-09T00:40:29.299Z,8.10
2018-12-09T00:42:56.785Z,8.10
2018-12-09T00:45:24.398Z,8.10
2018-12-09T00:47:51.881Z,8.10
2018-12-09T00:50:19.374Z,8.10
2018-12-09T00:52:46.885Z,8.10
2018-12-09T00:55:14.370Z,8.10
2018-12-09T00:57:41.856Z,8.10
2018-12-09T01:00:11.235Z,8.10
2018-12-09T01:02:38.801Z,8.10
2018-12-09T01:05:06.442Z,8.00
2018-12-09T01:07:33.947Z,8.00
2018-12-09T01:10:01.462Z,8.00
2018-12-09T01:12:28.983Z,8.10
2018-12-09T01:14:56.510Z,8.20
2018-12-09T01:17:24.072Z,8.20
2018-12-09T01:19:51.588Z,8.20
2018-12-09T01:22:19.182Z,8.30
2018-12-09T01:24:46.667Z,8.50
2018-12-09T01:27:14.150Z,8.60
2018-12-09T01:29:41.674Z,8.80
2018-12-09T01:32:09.277Z,9.00
2018-12-09T01:34:36.774Z,9.10
2018-12-09T01:37:04.290Z,9.20
2018-12-09T01:39:31.800Z,9.20
2018-12-09T01:41:59.298Z,9.30
2018-12-09T01:44:26.802Z,9.30
2018-12-09T01:46:54.289Z,9.40
2018-12-09T01:49:21.797Z,9.40
2018-12-09T01:51:49.319Z,9.40
2018-12-09T01:54:17.224Z,9.50
2018-12-09T01:56:44.729Z,9.50
2018-12-09T01:59:12.249Z,9.50
2018-12-09T02:01:39.802Z,9.50
2018-12-09T02:04:07.578Z,9.50
2018-12-09T02:06:35.351Z,9.50
2018-12-09T02:09:04.411Z,9.50
2018-12-09T02:11:31.909Z,9.60
2018-12-09T02:13:59.413Z,9.70
2018-12-09T02:16:26.908Z,9.70
2018-12-09T02:19:05.186Z,9.70
2018-12-09T02:21:32.670Z,9.60
2018-12-09T02:24:00.163Z,9.60
2018-12-09T02:26:27.691Z,9.60
2018-12-09T02:28:55.187Z,9.60
2018-12-09T02:31:22.673Z,9.50
2018-12-09T02:33:50.182Z,9.30
2018-12-09T02:36:17.701Z,9.20
2018-12-09T02:38:45.302Z,9.10
2018-12-09T02:41:12.806Z,9.00
2018-12-09T02:43:40.298Z,8.90
2018-12-09T02:46:07.904Z,8.80
2018-12-09T02:48:35.405Z,8.80
2018-12-09T02:51:03.393Z,8.70
2018-12-09T02:53:30.966Z,8.70
2018-12-09T02:55:58.482Z,8.70
2018-12-09T02:58:25.981Z,8.70
2018-12-09T03:00:53.478Z,8.70
2018-12-09T03:03:21.074Z,8.70
2018-12-09T03:05:48.671Z,8.70
2018-12-09T03:08:16.161Z,8.70
2018-12-09T03:10:43.666Z,8.80
2018-12-09T03:13:11.337Z,8.80
2018-12-09T03:15:38.827Z,8.90
2018-12-09T03:18:06.446Z,8.90
2018-12-09T03:20:34.044Z,8.90
2018-12-09T03:23:01.552Z,8.90
2018-12-09T03:25:29.049Z,9.00
2018-12-09T03:27:56.566Z,9.00
2018-12-09T03:30:24.076Z,8.90
2018-12-09T03:32:51.581Z,8.90
2018-12-09T03:35:19.093Z,8.90
2018-12-09T03:37:46.610Z,9.00
2018-12-09T03:40:14.225Z,9.00
2018-12-09T03:42:41.722Z,8.90
2018-12-09T03:45:09.257Z,8.90
2018-12-09T03:47:36.854Z,8.90
2018-12-09T03:50:06.137Z,8.80
2018-12-09T03:52:33.639Z,8.80
2018-12-09T03:55:01.136Z,8.80
2018-12-09T03:57:28.642Z,8.80
2018-12-09T03:59:56.136Z,8.70
2018-12-09T04:02:23.683Z,8.60
2018-12-09T04:04:51.179Z,8.50
2018-12-09T04:07:18.704Z,8.40
2018-12-09T04:09:46.318Z,8.40
2018-12-09T04:12:13.822Z,8.20
2018-12-09T04:14:41.312Z,8.20
2018-12-09T04:17:08.835Z,8.10
2018-12-09T04:19:36.338Z,8.10
2018-12-09T04:22:03.821Z,8.00
2018-12-09T04:24:31.336Z,8.00
2018-12-09T04:26:58.818Z,7.90
2018-12-09T04:29:26.338Z,7.90
2018-12-09T04:31:53.834Z,7.70
2018-12-09T04:34:21.366Z,7.70
2018-12-09T04:36:48.863Z,7.60
2018-12-09T04:39:16.359Z,7.60
2018-12-09T04:41:43.882Z,7.60
2018-12-09T04:44:11.399Z,7.60
2018-12-09T04:46:38.908Z,7.50
2018-12-09T04:49:06.405Z,7.50
2018-12-09T04:54:31.511Z,7.30
2018-12-09T04:56:59.066Z,7.20
2018-12-09T04:59:26.560Z,7.20
2018-12-09T05:01:54.147Z,7.10
2018-12-09T05:04:21.642Z,7.00
2018-12-09T05:06:49.173Z,7.00
2018-12-09T05:09:16.674Z,7.00
2018-12-09T05:11:44.167Z,7.00
2018-12-09T05:14:11.827Z,6.90
2018-12-09T05:16:39.326Z,6.90
2018-12-09T05:19:06.837Z,7.00
2018-12-09T05:21:34.350Z,7.00
2018-12-09T05:24:01.859Z,7.00
2018-12-09T05:26:29.363Z,7.10
2018-12-09T05:28:56.878Z,7.20
2018-12-09T05:31:24.399Z,7.10
2018-12-09T05:33:51.896Z,7.00
2018-12-09T05:36:19.409Z,7.10
2018-12-09T05:38:46.902Z,7.00
2018-12-09T05:41:14.417Z,7.10
2018-12-09T05:43:41.914Z,7.10
2018-12-09T05:46:09.427Z,7.20
2018-12-09T05:48:36.920Z,7.20
2018-12-09T05:51:04.428Z,7.30
2018-12-09T05:53:31.929Z,7.30
2018-12-09T05:55:59.450Z,7.40
2018-12-09T05:58:26.942Z,7.40
2018-12-09T06:00:54.440Z,7.40
2018-12-09T06:03:22.262Z,7.40
2018-12-09T06:05:49.749Z,7.40
2018-12-09T06:08:17.281Z,7.40
2018-12-09T06:10:44.771Z,7.40
2018-12-09T06:13:12.425Z,7.50
2018-12-09T06:15:40.321Z,7.50
2018-12-09T06:18:07.835Z,7.40
2018-12-09T06:20:35.329Z,7.40
2018-12-09T06:23:02.831Z,7.30
2018-12-09T06:25:30.352Z,7.30
2018-12-09T06:27:58.273Z,7.20
2018-12-09T06:30:25.786Z,7.20
2018-12-09T06:32:53.294Z,7.00
2018-12-09T06:35:20.801Z,6.70
2018-12-09T06:37:48.318Z,6.30
2018-12-09T06:40:15.907Z,6.00
2018-12-09T06:42:43.417Z,5.70
2018-12-09T06:45:10.916Z,5.50
2018-12-09T06:47:38.438Z,5.40
2018-12-09T06:50:06.205Z,5.20
2018-12-09T06:52:33.807Z,5.10
2018-12-09T06:55:01.300Z,5.00
2018-12-09T06:57:29.016Z,5.00
2018-12-09T06:59:56.497Z,4.90
2018-12-09T07:02:24.026Z,4.90
2018-12-09T07:04:51.516Z,4.90
2018-12-09T07:07:19.514Z,4.90
2018-12-09T07:09:47.025Z,4.90
2018-12-09T07:12:14.514Z,4.80
2018-12-09T07:14:42.233Z,4.70
2018-12-09T07:17:09.716Z,4.70
2018-12-09T07:19:37.237Z,4.80
2018-12-09T07:22:04.721Z,5.00
2018-12-09T07:24:32.226Z,5.10
2018-12-09T07:26:59.718Z,5.20
2018-12-09T07:29:27.217Z,5.20
2018-12-09T07:31:54.810Z,5.10
2018-12-09T07:34:22.306Z,5.00
2018-12-09T07:36:49.810Z,5.00
2018-12-09T07:39:17.302Z,5.00
2018-12-09T07:41:44.818Z,5.00
2018-12-09T07:44:12.311Z,5.00
2018-12-09T07:46:40.226Z,5.00
2018-12-09T07:49:07.721Z,5.00
2018-12-09T07:51:35.228Z,5.00
2018-12-09T07:54:02.709Z,5.00
2018-12-09T07:56:30.214Z,4.90
2018-12-09T07:58:57.776Z,4.70
2018-12-09T08:01:25.259Z,4.60
2018-12-09T08:03:52.767Z,4.60
2018-12-09T08:06:20.254Z,4.60
2018-12-09T08:08:47.757Z,4.70
2018-12-09T08:11:15.241Z,4.60
2018-12-09T08:13:42.738Z,4.70
2018-12-09T08:16:10.237Z,4.70
2018-12-09T08:18:37.747Z,4.70
2018-12-09T08:21:05.232Z,4.70
2018-12-09T08:23:32.709Z,4.70
2018-12-09T08:26:00.205Z,4.70
2018-12-09T08:28:27.690Z,4.90
2018-12-09T08:30:55.242Z,5.00
2018-12-09T08:33:22.727Z,5.10
2018-12-09T08:35:50.226Z,5.10
2018-12-09T08:38:17.710Z,5.00
2018-12-09T08:40:45.221Z,5.10
2018-12-09T08:43:12.704Z,5.20
2018-12-09T08:45:40.181Z,5.20
2018-12-09T08:48:07.685Z,5.30
2018-12-09T08:50:35.165Z,5.30
2018-12-09T08:53:02.689Z,5.40
2018-12-09T08:55:30.169Z,5.60
2018-12-09T08:57:57.674Z,5.70
2018-12-09T09:00:25.164Z,5.80
2018-12-09T09:02:52.667Z,5.90
2018-12-09T09:05:20.211Z,5.90
2018-12-09T09:07:47.713Z,6.00
2018-12-09T09:10:15.198Z,6.10
2018-12-09T09:12:42.687Z,6.10
2018-12-09T09:15:10.191Z,6.00
2018-12-09T09:17:37.684Z,6.10
2018-12-09T09:20:05.762Z,6.10
2018-12-09T09:22:33.251Z,6.10
2018-12-09T09:25:00.773Z,6.00
2018-12-09T09:27:28.337Z,6.00
2018-12-09T09:29:55.846Z,5.80
2018-12-09T09:32:23.337Z,5.80
2018-12-09T09:34:51.028Z,5.80
2018-12-09T09:37:18.558Z,5.80
2018-12-09T09:39:46.045Z,5.70
2018-12-09T09:42:13.584Z,5.80
2018-12-09T09:44:41.167Z,5.80
2018-12-09T09:47:08.704Z,5.70
2018-12-09T09:49:36.194Z,5.70
2018-12-09T09:52:03.774Z,5.60
2018-12-09T09:54:31.257Z,5.50
2018-12-09T09:56:58.749Z,5.50
2018-12-09T09:59:26.250Z,5.40
2018-12-09T10:01:53.757Z,5.50
2018-12-09T10:04:21.264Z,5.40
2018-12-09T10:06:48.746Z,5.30
2018-12-09T10:09:16.249Z,5.10
2018-12-09T10:11:43.733Z,5.00
2018-12-09T10:14:11.220Z,5.00
2018-12-09T10:16:38.713Z,5.10
2018-12-09T10:19:06.194Z,5.10
2018-12-09T10:21:33.886Z,5.20
2018-12-09T10:24:01.438Z,5.20
2018-12-09T10:26:36.202Z,5.30
2018-12-09T10:28:58.450Z,5.40
2018-12-09T10:31:25.929Z,5.30
2018-12-09T10:33:53.477Z,5.40
2018-12-09T10:36:20.968Z,5.40
2018-12-09T10:38:48.459Z,5.40
2018-12-09T10:41:16.046Z,5.50
2018-12-09T10:43:43.547Z,5.50
2018-12-09T10:46:11.083Z,5.50
2018-12-09T10:48:38.571Z,5.50
2018-12-09T10:51:06.081Z,5.60
2018-12-09T10:53:33.582Z,5.60
2018-12-09T10:56:01.073Z,5.70
2018-12-09T10:58:28.571Z,5.70
2018-12-09T11:00:58.042Z,5.80
2018-12-09T11:03:25.554Z,5.90
2018-12-09T11:05:53.066Z,5.90
2018-12-09T11:08:20.566Z,5.90
2018-12-09T11:10:48.050Z,5.90
2018-12-09T11:13:15.542Z,6.00
2018-12-09T11:15:43.691Z,6.00
2018-12-09T11:18:11.177Z,6.00
2018-12-09T11:20:38.681Z,6.00
2018-12-09T11:23:06.172Z,6.10
2018-12-09T11:25:33.680Z,6.10
2018-12-09T11:28:01.169Z,6.10
2018-12-09T11:30:28.674Z,6.20
2018-12-09T11:32:56.166Z,6.20
2018-12-09T11:35:23.657Z,6.30
2018-12-09T11:37:51.163Z,6.30
2018-12-09T11:40:18.649Z,6.40
2018-12-09T11:42:46.174Z,6.40
2018-12-09T11:45:13.673Z,6.50
2018-12-09T11:47:41.178Z,6.50
2018-12-09T11:50:09.055Z,6.60
2018-12-09T11:52:36.567Z,6.60
2018-12-09T11:55:04.430Z,6.70
2018-12-09T11:57:31.941Z,6.70
2018-12-09T11:59:59.441Z,6.70
2018-12-09T12:02:26.937Z,6.70
2018-12-09T12:04:54.465Z,6.80
2018-12-09T12:07:21.953Z,6.80
2018-12-09T12:09:49.460Z,6.80
2018-12-09T12:12:16.945Z,6.80
2018-12-09T12:14:44.453Z,6.70
2018-12-09T12:17:11.954Z,6.70
2018-12-09T12:19:39.457Z,6.70
2018-12-09T12:22:06.950Z,6.70
2018-12-09T12:24:34.435Z,6.70
2018-12-09T12:27:02.134Z,6.60
2018-12-09T12:29:29.625Z,6.60
2018-12-09T12:31:57.161Z,6.60
2018-12-09T12:34:24.656Z,6.60
2018-12-09T12:36:52.162Z,6.60
2018-12-09T12:39:19.658Z,6.60
2018-12-09T12:41:47.185Z,6.60
2018-12-09T12:44:14.862Z,6.50
2018-12-09T12:46:42.378Z,6.50
2018-12-09T12:49:09.871Z,6.50
2018-12-09T12:51:37.380Z,6.50
2018-12-09T12:54:05.562Z,6.50
2018-12-09T12:56:33.202Z,6.50
2018-12-09T12:59:00.713Z,6.50
2018-12-09T13:01:28.242Z,6.50
2018-12-09T13:03:55.746Z,6.50
2018-12-09T13:06:23.751Z,6.50
2018-12-09T13:08:51.259Z,6.50
2018-12-09T13:11:18.760Z,6.50
2018-12-09T13:13:46.388Z,6.50
2018-12-09T13:16:13.893Z,6.50
2018-12-09T13:18:41.381Z,6.50
2018-12-09T13:21:08.894Z,6.40
2018-12-09T13:23:36.386Z,6.50
2018-12-09T13:26:03.903Z,6.50
2018-12-09T13:28:31.398Z,6.50
2018-12-09T13:30:58.926Z,6.50
2018-12-09T13:33:26.415Z,6.50
2018-12-09T13:35:54.002Z,6.40
2018-12-09T13:38:21.511Z,6.40
2018-12-09T13:40:49.002Z,6.40
2018-12-09T13:43:16.510Z,6.40
2018-12-09T13:45:43.990Z,6.40
2018-12-09T13:48:11.589Z,6.40
2018-12-09T13:50:39.241Z,6.40
2018-12-09T13:53:06.753Z,6.30
2018-12-09T13:55:34.255Z,6.30
2018-12-09T13:58:01.896Z,6.30
2018-12-09T14:00:29.382Z,6.30
2018-12-09T14:02:56.885Z,6.30
2018-12-09T14:05:24.378Z,6.20
2018-12-09T14:07:51.881Z,6.20
2018-12-09T14:10:19.419Z,6.20
2018-12-09T14:12:46.998Z,6.20
2018-12-09T14:15:14.567Z,6.10
2018-12-09T14:17:42.070Z,6.10
2018-12-09T14:20:09.795Z,6.10
2018-12-09T14:22:37.288Z,6.00
2018-12-09T14:25:05.666Z,6.00
2018-12-09T14:27:33.149Z,6.00
2018-12-09T14:30:00.661Z,6.00
2018-12-09T14:32:28.181Z,6.00
2018-12-09T14:34:56.411Z,6.00
2018-12-09T14:37:25.870Z,5.90
2018-12-09T14:39:54.169Z,5.80
2018-12-09T14:42:22.372Z,5.80
2018-12-09T14:44:50.227Z,5.80
2018-12-09T14:47:17.770Z,5.70
2018-12-09T14:49:45.272Z,5.70
2018-12-09T14:52:13.356Z,5.70
2018-12-09T14:54:41.424Z,5.70
2018-12-09T14:57:09.003Z,5.70
2018-12-09T14:59:36.517Z,5.70
2018-12-09T15:02:04.424Z,5.70
2018-12-09T15:04:31.922Z,5.60
2018-12-09T15:06:59.403Z,5.70
2018-12-09T15:09:26.998Z,5.70
2018-12-09T15:11:54.474Z,5.70
2018-12-09T15:14:22.671Z,5.70
2018-12-09T15:16:50.520Z,5.80
2018-12-09T15:19:18.050Z,5.70
2018-12-09T15:21:45.562Z,5.80
2018-12-09T15:24:13.598Z,5.80
2018-12-09T15:26:41.785Z,5.80
2018-12-09T15:29:09.339Z,5.70
2018-12-09T15:31:36.863Z,5.70
2018-12-09T15:34:04.491Z,5.70
2018-12-09T15:36:32.638Z,5.70
2018-12-09T15:39:00.704Z,5.70
2018-12-09T15:41:28.797Z,5.60
2018-12-09T15:43:57.049Z,5.70
2018-12-09T15:46:25.011Z,5.60
2018-12-09T15:48:52.597Z,5.60
2018-12-09T15:51:20.621Z,5.70
2018-12-09T15:53:48.564Z,5.70
2018-12-09T15:56:16.103Z,5.70
2018-12-09T15:58:43.929Z,5.70
2018-12-09T16:01:11.972Z,5.80
2018-12-09T16:03:40.089Z,5.70
2018-12-09T16:06:07.816Z,5.70
2018-12-09T16:08:35.374Z,5.70
2018-12-09T16:11:03.425Z,5.70
2018-12-09T16:13:31.420Z,5.70
2018-12-09T16:15:59.603Z,5.60
2018-12-09T16:18:27.166Z,5.50
2018-12-09T16:20:54.702Z,5.40
2018-12-09T16:23:22.649Z,5.40
2018-12-09T16:25:50.695Z,5.40
2018-12-09T16:28:19.604Z,5.40
2018-12-09T16:30:47.158Z,5.30
2018-12-09T16:33:14.730Z,5.30
2018-12-09T16:35:42.799Z,5.30
2018-12-09T16:38:10.842Z,5.30
2018-12-09T16:40:38.946Z,5.20
2018-12-09T16:43:06.503Z,5.30
2018-12-09T16:45:34.110Z,5.30
2018-12-09T16:48:01.626Z,5.30
2018-12-09T16:50:29.118Z,5.30
2018-12-09T16:52:56.610Z,5.20
2018-12-09T16:58:25.502Z,5.10
2018-12-09T17:00:52.980Z,5.20
2018-12-09T17:03:21.014Z,5.20
2018-12-09T17:05:49.031Z,5.20
2018-12-09T17:08:16.591Z,5.30
2018-12-09T17:10:44.077Z,5.40
2018-12-09T17:13:11.934Z,5.40
2018-12-09T17:15:39.981Z,5.40
2018-12-09T17:18:08.977Z,5.40
2018-12-09T17:20:36.769Z,5.40
2018-12-09T17:23:04.278Z,5.40
2018-12-09T17:25:32.171Z,5.30
2018-12-09T17:28:00.230Z,5.40
2018-12-09T17:30:29.480Z,5.40
2018-12-09T17:32:57.368Z,5.40
2018-12-09T17:35:24.926Z,5.40
2018-12-09T17:37:52.585Z,5.40
2018-12-09T17:40:20.545Z,5.50
2018-12-09T17:42:49.482Z,5.50
2018-12-09T17:45:17.104Z,5.50
2018-12-09T17:47:44.786Z,5.50
2018-12-09T17:50:12.648Z,5.50
2018-12-09T17:52:40.607Z,5.40
2018-12-09T17:55:09.720Z,5.30
2018-12-09T17:57:37.258Z,5.30
2018-12-09T18:00:06.543Z,5.30
2018-12-09T18:02:34.130Z,5.30
2018-12-09T18:05:01.629Z,5.20
2018-12-09T18:07:29.121Z,5.30
2018-12-09T18:09:56.650Z,5.20
2018-12-09T18:12:24.134Z,5.20
2018-12-09T18:14:51.652Z,5.20
2018-12-09T18:17:19.156Z,5.20
2018-12-09T18:19:46.641Z,5.10
2018-12-09T18:22:14.142Z,5.10
2018-12-09T18:24:41.819Z,5.10
2018-12-09T18:27:09.322Z,5.20
2018-12-09T18:29:36.895Z,5.20
2018-12-09T18:32:04.489Z,5.20
2018-12-09T18:34:31.974Z,5.20
2018-12-09T18:36:59.453Z,5.20
2018-12-09T18:39:27.026Z,5.30
2018-12-09T18:41:54.515Z,5.30
2018-12-09T18:44:22.038Z,5.30
2018-12-09T18:46:49.542Z,5.30
2018-12-09T18:49:17.037Z,5.20
2018-12-09T18:51:44.523Z,5.20
2018-12-09T18:54:12.021Z,5.20
2018-12-09T18:56:39.533Z,5.20
2018-12-09T18:59:07.042Z,5.10
2018-12-09T19:01:34.557Z,5.10
2018-12-09T19:04:02.041Z,5.10
2018-12-09T19:06:29.628Z,5.10
2018-12-09T19:08:57.109Z,5.10
2018-12-09T19:11:24.806Z,5.20
2018-12-09T19:13:52.281Z,5.20
2018-12-09T19:16:19.806Z,5.20
2018-12-09T19:18:47.297Z,5.20
2018-12-09T19:21:14.801Z,5.20
2018-12-09T19:23:42.285Z,5.20
2018-12-09T19:26:09.786Z,5.20
2018-12-09T19:28:37.278Z,5.20
2018-12-09T19:31:04.758Z,5.20
2018-12-09T19:33:32.253Z,5.20
2018-12-09T19:35:59.736Z,5.20
2018-12-09T19:38:27.235Z,5.20
2018-12-09T19:40:54.753Z,5.20
2018-12-09T19:43:22.244Z,5.20
2018-12-09T19:45:49.729Z,5.20
2018-12-09T19:48:17.218Z,5.20
2018-12-09T19:50:44.716Z,5.20
2018-12-09T19:53:12.209Z,5.30
2018-12-09T19:55:39.704Z,5.30
2018-12-09T19:58:07.190Z,5.40
2018-12-09T20:00:34.694Z,5.40
2018-12-09T20:03:02.177Z,5.40
2018-12-09T20:05:29.725Z,5.40
2018-12-09T20:07:57.218Z,5.40
2018-12-09T20:10:24.727Z,5.40
2018-12-09T20:12:52.210Z,5.40
2018-12-09T20:15:19.697Z,5.40
2018-12-09T20:17:47.206Z,5.40
2018-12-09T20:20:14.698Z,5.50
2018-12-09T20:22:42.211Z,5.40
2018-12-09T20:25:09.779Z,5.40
2018-12-09T20:27:37.325Z,5.40
2018-12-09T20:30:07.490Z,5.30
2018-12-09T20:32:35.351Z,5.30
2018-12-09T20:35:03.475Z,5.30
2018-12-09T20:37:30.973Z,5.40
2018-12-09T20:39:58.969Z,5.40
2018-12-09T20:42:26.473Z,5.30
2018-12-09T20:44:54.006Z,5.30
2018-12-09T20:47:21.490Z,5.30
2018-12-09T20:49:48.984Z,5.30
2018-12-09T20:52:16.477Z,5.30
2018-12-09T20:54:43.973Z,5.30
2018-12-09T20:57:11.458Z,5.30
2018-12-09T20:59:38.962Z,5.40
2018-12-09T21:02:06.442Z,5.30
2018-12-09T21:04:33.942Z,5.30
2018-12-09T21:07:01.454Z,5.30
2018-12-09T21:09:28.966Z,5.30
2018-12-09T21:11:56.468Z,5.30
2018-12-09T21:14:23.958Z,5.30
2018-12-09T21:16:51.467Z,5.40
2018-12-09T21:19:18.969Z,5.40
2018-12-09T21:21:46.514Z,5.40
2018-12-09T21:24:14.053Z,5.40
2018-12-09T21:26:41.561Z,5.30
2018-12-09T21:29:09.070Z,5.30
2018-12-09T21:31:36.577Z,5.30
2018-12-09T21:34:04.078Z,5.30
2018-12-09T21:36:31.571Z,5.20
2018-12-09T21:38:59.084Z,5.30
2018-12-09T21:41:26.567Z,5.30
2018-12-09T21:43:54.075Z,5.30
2018-12-09T21:46:21.562Z,5.20
2018-12-09T21:48:49.078Z,5.20
2018-12-09T21:51:16.561Z,5.20
2018-12-09T21:53:44.048Z,5.20
2018-12-09T21:56:11.594Z,5.20
2018-12-09T21:58:39.079Z,5.30
2018-12-09T22:01:06.594Z,5.30
2018-12-09T22:03:34.089Z,5.20
2018-12-09T22:06:01.594Z,5.20
2018-12-09T22:08:29.084Z,5.20
2018-12-09T22:10:56.589Z,5.10
2018-12-09T22:13:24.089Z,5.00
2018-12-09T22:15:51.569Z,5.00
2018-12-09T22:18:19.073Z,5.00
2018-12-09T22:20:46.564Z,5.00
2018-12-09T22:23:14.067Z,4.90
2018-12-09T22:25:41.578Z,5.00
2018-12-09T22:28:09.078Z,5.00
2018-12-09T22:30:36.562Z,5.00
2018-12-09T22:33:04.077Z,5.00
2018-12-09T22:35:31.570Z,5.00
2018-12-09T22:37:59.099Z,4.90
2018-12-09T22:40:26.690Z,4.90
2018-12-09T22:42:54.186Z,4.90
2018-12-09T22:45:21.687Z,4.80
2018-12-09T22:47:49.222Z,4.70
2018-12-09T22:50:16.722Z,4.70
2018-12-09T22:52:44.309Z,4.70
2018-12-09T22:55:11.801Z,4.60
2018-12-09T22:57:39.321Z,4.60
2018-12-09T23:00:10.794Z,4.70
2018-12-09T23:02:44.026Z,4.60
2018-12-09T23:05:11.538Z,4.50
2018-12-09T23:07:44.668Z,4.60
2018-12-09T23:10:12.182Z,4.60
2018-12-09T23:12:39.666Z,4.60
2018-12-09T23:15:07.151Z,4.60
2018-12-09T23:17:34.662Z,4.70
2018-12-09T23:20:02.146Z,4.70
2018-12-09T23:22:29.646Z,4.80
2018-12-09T23:24:57.133Z,4.70
2018-12-09T23:27:24.634Z,4.80
2018-12-09T23:29:52.125Z,4.80
2018-12-09T23:32:19.620Z,4.80
2018-12-09T23:34:47.121Z,4.90
2018-12-09T23:37:14.921Z,4.90
2018-12-09T23:39:42.470Z,4.90
2018-12-09T23:42:10.034Z,4.90
2018-12-09T23:44:37.537Z,4.90
2018-12-09T23:47:05.026Z,4.80
2018-12-09T23:49:32.526Z,4.80
2018-12-09T23:52:00.049Z,4.90
2018-12-09T23:54:27.526Z,4.90
2018-12-09T23:56:55.027Z,4.90
2018-12-09T23:59:22.506Z,4.90
